Time;durP1;ratioP1;P1;durP2;ratioP2;P2;SDS_P1;SDS_P2;PMS_P1;PMS_P2;Temp;Humidity;BMP_temperature;BMP_pressure;BME280_temperature;BME280_humidity;BME280_pressure;Samples;Min_cycle;Max_cycle;Signal;HPM_P1;HPM_P2
2021/12/22 00:00:32;;;;;;;0.20;0.20;;;;;;;;;;5030830;28;20271;-67
2021/12/22 00:02:59;;;;;;;0.20;0.20;;;;;;;;;;5043779;28;20208;-68
2021/12/22 00:05:28;;;;;;;0.20;0.20;;;;;;;;;;5044909;28;20233;-68
2021/12/22 00:07:55;;;;;;;0.20;0.20;;;;;;;;;;5044885;28;20334;-67
2021/12/22 00:10:21;;;;;;;0.20;0.20;;;;;;;;;;5044797;28;20452;-68
2021/12/22 00:12:49;;;;;;;0.20;0.20;;;;;;;;;;5045029;28;20376;-68
2021/12/22 00:15:15;;;;;;;0.20;0.20;;;;;;;;;;5044960;28;20246;-68
2021/12/22 00:17:42;;;;;;;0.20;0.20;;;;;;;;;;5044854;28;20228;-68
2021/12/22 00:20:10;;;;;;;0.20;0.20;;;;;;;;;;5044944;28;20408;-68
2021/12/22 00:22:37;;;;;;;0.30;0.30;;;;;;;;;;5045161;28;20219;-68
2021/12/22 00:25:04;;;;;;;0.20;0.20;;;;;;;;;;5044790;28;20428;-69
2021/12/22 00:27:30;;;;;;;0.20;0.20;;;;;;;;;;5044396;28;20247;-68
2021/12/22 00:29:56;;;;;;;0.20;0.20;;;;;;;;;;5044379;28;20369;-69
2021/12/22 00:32:25;;;;;;;0.20;0.20;;;;;;;;;;5044671;28;20504;-68
2021/12/22 00:34:54;;;;;;;0.20;0.20;;;;;;;;;;5043640;28;20205;-68
2021/12/22 00:37:24;;;;;;;0.20;0.20;;;;;;;;;;5043807;28;20341;-67
2021/12/22 00:39:50;;;;;;;0.20;0.20;;;;;;;;;;5033676;28;20209;-68
2021/12/22 00:42:17;;;;;;;0.27;0.27;;;;;;;;;;5044288;28;20279;-68
2021/12/22 00:44:46;;;;;;;0.20;0.20;;;;;;;;;;5043947;28;20205;-67
2021/12/22 00:47:12;;;;;;;0.20;0.20;;;;;;;;;;5044236;28;20204;-68
2021/12/22 00:49:38;;;;;;;0.20;0.20;;;;;;;;;;5044175;28;20357;-68
2021/12/22 00:52:05;;;;;;;0.20;0.20;;;;;;;;;;5043773;28;20205;-68
2021/12/22 00:54:32;;;;;;;0.20;0.20;;;;;;;;;;5043605;28;20205;-68
2021/12/22 00:57:03;;;;;;;0.30;0.30;;;;;;;;;;5044015;28;20205;-69
2021/12/22 00:59:30;;;;;;;0.23;0.23;;;;;;;;;;5043795;28;20538;-67
2021/12/22 01:01:56;;;;;;;0.27;0.27;;;;;;;;;;5043855;28;20374;-68
2021/12/22 01:04:22;;;;;;;0.20;0.20;;;;;;;;;;5043570;28;20346;-69
2021/12/22 01:06:48;;;;;;;0.20;0.20;;;;;;;;;;5043408;28;20236;-67
2021/12/22 01:09:15;;;;;;;0.30;0.30;;;;;;;;;;5043628;28;20251;-67
2021/12/22 01:11:42;;;;;;;0.23;0.23;;;;;;;;;;5043670;28;20204;-67
2021/12/22 01:14:08;;;;;;;0.30;0.30;;;;;;;;;;5043079;28;20211;-67
2021/12/22 01:16:36;;;;;;;0.20;0.20;;;;;;;;;;5043203;28;20228;-67
2021/12/22 01:19:06;;;;;;;0.20;0.20;;;;;;;;;;5042980;28;20228;-68
2021/12/22 01:21:39;;;;;;;0.20;0.20;;;;;;;;;;5043716;28;20231;-67
2021/12/22 01:24:15;;;;;;;0.20;0.20;;;;;;;;;;5043706;28;20201;-68
2021/12/22 01:26:50;;;;;;;0.20;0.20;;;;;;;;;;5042812;28;20200;-67
2021/12/22 01:29:16;;;;;;;0.20;0.20;;;;;;;;;;5043333;28;20203;-68
2021/12/22 01:31:43;;;;;;;0.20;0.20;;;;;;;;;;5043197;28;20276;-68
2021/12/22 01:34:10;;;;;;;0.30;0.30;;;;;;;;;;5043421;28;20545;-70
2021/12/22 01:36:36;;;;;;;0.20;0.20;;;;;;;;;;5043026;28;20271;-67
2021/12/22 01:39:03;;;;;;;0.23;0.23;;;;;;;;;;5043304;28;20251;-69
2021/12/22 01:41:30;;;;;;;0.20;0.20;;;;;;;;;;5043373;28;20427;-68
2021/12/22 01:43:57;;;;;;;0.20;0.20;;;;;;;;;;5043238;28;20212;-67
2021/12/22 01:49:11;;;;;;;0.23;0.23;;;;;;;;;;5043205;28;20199;-68
2021/12/22 01:51:40;;;;;;;0.20;0.20;;;;;;;;;;5042868;28;20229;-68
2021/12/22 01:54:08;;;;;;;0.20;0.20;;;;;;;;;;5042792;28;20415;-68
2021/12/22 01:56:35;;;;;;;0.20;0.20;;;;;;;;;;5043127;28;20204;-67
2021/12/22 01:59:04;;;;;;;0.20;0.20;;;;;;;;;;5043485;28;20403;-67
2021/12/22 02:01:33;;;;;;;0.20;0.20;;;;;;;;;;5030948;28;20231;-68
2021/12/22 02:04:00;;;;;;;0.20;0.20;;;;;;;;;;5043078;28;20246;-68
2021/12/22 02:06:26;;;;;;;0.30;0.30;;;;;;;;;;5042237;28;20343;-68
2021/12/22 02:08:54;;;;;;;0.30;0.30;;;;;;;;;;5043078;28;20204;-69
2021/12/22 02:11:20;;;;;;;0.20;0.20;;;;;;;;;;5043031;28;20392;-68
2021/12/22 02:13:53;;;;;;;0.30;0.30;;;;;;;;;;5042292;28;20328;-67
2021/12/22 02:16:26;;;;;;;0.20;0.20;;;;;;;;;;5042979;28;20193;-68
2021/12/22 02:18:53;;;;;;;0.20;0.20;;;;;;;;;;5042766;28;20216;-68
2021/12/22 02:21:23;;;;;;;0.20;0.20;;;;;;;;;;5042850;28;20246;-67
2021/12/22 02:23:49;;;;;;;0.20;0.20;;;;;;;;;;5042550;28;20512;-68
2021/12/22 02:26:19;;;;;;;0.20;0.20;;;;;;;;;;5042741;28;20208;-68
2021/12/22 02:28:53;;;;;;;0.20;0.20;;;;;;;;;;5042311;28;20259;-67
2021/12/22 02:31:20;;;;;;;0.20;0.20;;;;;;;;;;5042763;28;20215;-69
2021/12/22 02:33:49;;;;;;;0.30;0.30;;;;;;;;;;5042438;28;20200;-67
2021/12/22 02:36:22;;;;;;;0.20;0.20;;;;;;;;;;5042320;28;20205;-68
2021/12/22 02:38:51;;;;;;;0.20;0.20;;;;;;;;;;5043049;28;20217;-68
2021/12/22 02:41:18;;;;;;;0.20;0.20;;;;;;;;;;5046550;28;20403;-69
2021/12/22 02:43:47;;;;;;;0.20;0.20;;;;;;;;;;5046048;28;20207;-68
2021/12/22 02:46:14;;;;;;;0.20;0.20;;;;;;;;;;5046345;28;20208;-69
2021/12/22 02:48:41;;;;;;;0.30;0.30;;;;;;;;;;5046520;28;20201;-68
2021/12/22 02:51:07;;;;;;;0.20;0.20;;;;;;;;;;5046105;28;20394;-69
2021/12/22 02:53:41;;;;;;;0.20;0.20;;;;;;;;;;5046592;28;20209;-69
2021/12/22 02:56:24;;;;;;;0.20;0.20;;;;;;;;;;5045913;28;20434;-68
2021/12/22 02:58:59;;;;;;;0.20;0.20;;;;;;;;;;5045590;28;20279;-67
2021/12/22 03:01:50;;;;;;;0.20;0.20;;;;;;;;;;5045949;28;20226;-67
2021/12/22 03:04:18;;;;;;;0.20;0.20;;;;;;;;;;5045861;28;20200;-67
2021/12/22 03:06:52;;;;;;;0.20;0.20;;;;;;;;;;5045691;28;20316;-67
2021/12/22 03:09:19;;;;;;;0.30;0.30;;;;;;;;;;5026212;28;20201;-68
2021/12/22 03:11:47;;;;;;;0.20;0.20;;;;;;;;;;5026355;28;20391;-67
2021/12/22 03:14:13;;;;;;;0.20;0.20;;;;;;;;;;5026258;28;20209;-69
2021/12/22 03:16:42;;;;;;;0.20;0.20;;;;;;;;;;5025996;28;20296;-69
2021/12/22 03:19:09;;;;;;;0.30;0.30;;;;;;;;;;5025819;28;20275;-68
2021/12/22 03:21:35;;;;;;;0.23;0.23;;;;;;;;;;5026118;28;20431;-67
2021/12/22 03:24:01;;;;;;;0.20;0.20;;;;;;;;;;5026489;28;20215;-68
2021/12/22 03:26:29;;;;;;;0.20;0.20;;;;;;;;;;5025996;28;20396;-67
2021/12/22 03:28:56;;;;;;;0.30;0.30;;;;;;;;;;5026079;28;20418;-67
2021/12/22 03:31:22;;;;;;;0.20;0.20;;;;;;;;;;5038410;28;20201;-68
2021/12/22 03:33:49;;;;;;;0.20;0.20;;;;;;;;;;5045617;28;20204;-67
2021/12/22 03:36:15;;;;;;;0.20;0.20;;;;;;;;;;5045947;28;20399;-67
2021/12/22 03:38:42;;;;;;;0.20;0.20;;;;;;;;;;5045603;28;20224;-68
2021/12/22 03:41:10;;;;;;;0.23;0.23;;;;;;;;;;5045623;28;20208;-68
2021/12/22 03:43:36;;;;;;;0.20;0.20;;;;;;;;;;5045100;28;20395;-67
2021/12/22 03:46:04;;;;;;;0.20;0.20;;;;;;;;;;5041040;28;20205;-68
2021/12/22 03:48:30;;;;;;;0.20;0.20;;;;;;;;;;5045397;28;20201;-67
2021/12/22 03:50:57;;;;;;;0.20;0.20;;;;;;;;;;5038435;28;20208;-68
2021/12/22 03:53:23;;;;;;;0.20;0.20;;;;;;;;;;5045255;28;20414;-68
2021/12/22 03:55:49;;;;;;;0.20;0.20;;;;;;;;;;5045170;28;20208;-68
2021/12/22 03:58:17;;;;;;;0.20;0.20;;;;;;;;;;5030744;28;20259;-68
2021/12/22 04:00:44;;;;;;;0.20;0.20;;;;;;;;;;5025303;28;20209;-68
2021/12/22 04:03:17;;;;;;;0.20;0.20;;;;;;;;;;5024926;28;20373;-68
2021/12/22 04:05:43;;;;;;;0.20;0.20;;;;;;;;;;5024851;28;20268;-68
2021/12/22 04:08:10;;;;;;;0.20;0.20;;;;;;;;;;5024753;28;20236;-68
2021/12/22 04:10:37;;;;;;;0.20;0.20;;;;;;;;;;5024911;28;20197;-69
2021/12/22 04:13:03;;;;;;;0.20;0.20;;;;;;;;;;5024650;28;20248;-68
2021/12/22 04:15:31;;;;;;;0.20;0.20;;;;;;;;;;5024648;28;20212;-68
2021/12/22 04:17:57;;;;;;;0.20;0.20;;;;;;;;;;5025130;28;20212;-68
2021/12/22 04:20:25;;;;;;;0.20;0.20;;;;;;;;;;5031190;28;20225;-68
2021/12/22 04:22:51;;;;;;;0.20;0.20;;;;;;;;;;5044589;28;20282;-68
2021/12/22 04:25:20;;;;;;;0.20;0.20;;;;;;;;;;5044643;28;20208;-68
2021/12/22 04:27:47;;;;;;;0.20;0.20;;;;;;;;;;5044261;28;20205;-68
2021/12/22 04:30:13;;;;;;;0.20;0.20;;;;;;;;;;5044526;28;20201;-68
2021/12/22 04:32:39;;;;;;;0.20;0.20;;;;;;;;;;5044147;28;20262;-67
2021/12/22 04:35:06;;;;;;;0.20;0.20;;;;;;;;;;5044243;28;20231;-67
2021/12/22 04:40:37;;;;;;;0.20;0.20;;;;;;;;;;5034911;28;20267;-69
2021/12/22 04:43:04;;;;;;;0.20;0.20;;;;;;;;;;5024466;28;20193;-68
2021/12/22 04:45:30;;;;;;;0.20;0.20;;;;;;;;;;5024507;28;20206;-68
2021/12/22 04:47:57;;;;;;;0.20;0.20;;;;;;;;;;5033667;28;20292;-68
2021/12/22 04:50:24;;;;;;;0.20;0.20;;;;;;;;;;5044307;28;20201;-68
2021/12/22 04:52:57;;;;;;;0.20;0.20;;;;;;;;;;5044446;28;20246;-68
2021/12/22 04:55:25;;;;;;;0.23;0.23;;;;;;;;;;5044143;28;20201;-68
2021/12/22 04:57:52;;;;;;;0.37;0.37;;;;;;;;;;5043522;28;20204;-67
2021/12/22 05:00:19;;;;;;;0.27;0.27;;;;;;;;;;5043407;28;20221;-69
2021/12/22 05:02:45;;;;;;;0.30;0.30;;;;;;;;;;5043028;28;20431;-67
2021/12/22 05:05:11;;;;;;;0.20;0.20;;;;;;;;;;5043001;28;20205;-69
2021/12/22 05:07:38;;;;;;;0.20;0.20;;;;;;;;;;5042984;28;20220;-68
2021/12/22 05:10:05;;;;;;;0.30;0.30;;;;;;;;;;5043440;28;20200;-68
2021/12/22 05:12:31;;;;;;;0.30;0.30;;;;;;;;;;5043670;28;20226;-68
2021/12/22 05:14:58;;;;;;;0.20;0.20;;;;;;;;;;5043257;28;20212;-68
2021/12/22 05:17:38;;;;;;;0.30;0.30;;;;;;;;;;5043677;28;20205;-68
2021/12/22 05:20:05;;;;;;;0.27;0.27;;;;;;;;;;5043845;28;20223;-69
2021/12/22 05:22:31;;;;;;;0.20;0.20;;;;;;;;;;5043276;28;20270;-68
2021/12/22 05:24:57;;;;;;;0.20;0.20;;;;;;;;;;5043243;28;20280;-69
2021/12/22 05:27:24;;;;;;;0.20;0.20;;;;;;;;;;5043569;28;20247;-68
2021/12/22 05:29:50;;;;;;;0.20;0.20;;;;;;;;;;5043311;28;20201;-67
2021/12/22 05:32:17;;;;;;;0.20;0.20;;;;;;;;;;5043608;28;20204;-67
2021/12/22 05:34:44;;;;;;;0.20;0.20;;;;;;;;;;5043344;28;20503;-68
2021/12/22 05:37:10;;;;;;;0.40;0.40;;;;;;;;;;5043437;28;20263;-68
2021/12/22 05:39:36;;;;;;;0.20;0.20;;;;;;;;;;5043051;28;20217;-68
2021/12/22 05:42:03;;;;;;;0.20;0.20;;;;;;;;;;5042868;28;20205;-68
2021/12/22 05:44:29;;;;;;;0.20;0.20;;;;;;;;;;5043398;28;20248;-68
2021/12/22 05:46:55;;;;;;;0.20;0.20;;;;;;;;;;5043158;28;20243;-69
2021/12/22 05:49:23;;;;;;;0.27;0.27;;;;;;;;;;5043171;28;20319;-68
2021/12/22 05:51:49;;;;;;;0.23;0.23;;;;;;;;;;5042904;28;20250;-67
2021/12/22 05:54:15;;;;;;;0.27;0.27;;;;;;;;;;5042996;28;20259;-68
2021/12/22 05:56:42;;;;;;;0.30;0.30;;;;;;;;;;5042404;28;20204;-67
2021/12/22 05:59:08;;;;;;;0.20;0.20;;;;;;;;;;5042442;28;22510;-68
2021/12/22 06:01:34;;;;;;;0.23;0.23;;;;;;;;;;5042114;28;20202;-68
2021/12/22 06:04:02;;;;;;;0.27;0.27;;;;;;;;;;5042450;28;20227;-68
2021/12/22 06:06:30;;;;;;;0.20;0.20;;;;;;;;;;5042749;28;20244;-68
2021/12/22 06:08:56;;;;;;;0.30;0.30;;;;;;;;;;5043011;28;20254;-67
2021/12/22 06:11:22;;;;;;;0.30;0.30;;;;;;;;;;5043005;28;20204;-67
2021/12/22 06:13:49;;;;;;;0.20;0.20;;;;;;;;;;5046469;28;20262;-67
2021/12/22 06:16:15;;;;;;;0.20;0.20;;;;;;;;;;5049539;28;20204;-67
2021/12/22 06:18:42;;;;;;;0.30;0.30;;;;;;;;;;5049327;28;20205;-68
2021/12/22 06:24:18;;;;;;;0.30;0.30;;;;;;;;;;5048470;28;20555;-67
2021/12/22 06:26:44;;;;;;;0.30;0.30;;;;;;;;;;5049037;28;20197;-69
2021/12/22 06:29:10;;;;;;;0.23;0.23;;;;;;;;;;5049164;28;20204;-68
2021/12/22 06:31:36;;;;;;;0.20;0.20;;;;;;;;;;5049263;28;20326;-68
2021/12/22 06:34:03;;;;;;;0.20;0.20;;;;;;;;;;5049061;28;20204;-69
2021/12/22 06:36:29;;;;;;;0.20;0.20;;;;;;;;;;5049353;28;20205;-68
2021/12/22 06:38:55;;;;;;;0.30;0.30;;;;;;;;;;5049132;28;20207;-67
2021/12/22 06:41:23;;;;;;;0.30;0.30;;;;;;;;;;5048202;28;20200;-68
2021/12/22 06:43:49;;;;;;;0.30;0.30;;;;;;;;;;5048954;28;20212;-68
2021/12/22 06:46:15;;;;;;;0.30;0.30;;;;;;;;;;5049133;28;20204;-68
2021/12/22 06:48:41;;;;;;;0.30;0.30;;;;;;;;;;5049164;28;20403;-68
2021/12/22 06:51:08;;;;;;;0.30;0.30;;;;;;;;;;5048818;28;20200;-68
2021/12/22 06:53:36;;;;;;;0.20;0.20;;;;;;;;;;5049269;28;20429;-69
2021/12/22 06:56:03;;;;;;;0.30;0.30;;;;;;;;;;5049168;28;20374;-68
2021/12/22 06:58:31;;;;;;;0.30;0.30;;;;;;;;;;5048986;28;20212;-69
2021/12/22 07:04:03;;;;;;;0.30;0.30;;;;;;;;;;5041883;28;20219;-68
2021/12/22 07:06:30;;;;;;;0.30;0.30;;;;;;;;;;5029080;28;20225;-68
2021/12/22 07:08:56;;;;;;;0.30;0.30;;;;;;;;;;5029188;28;20197;-68
2021/12/22 07:11:23;;;;;;;0.30;0.30;;;;;;;;;;5028961;28;20251;-68
2021/12/22 07:13:50;;;;;;;0.30;0.30;;;;;;;;;;5047086;28;20522;-68
2021/12/22 07:16:16;;;;;;;0.30;0.30;;;;;;;;;;5048608;28;20200;-68
2021/12/22 07:18:43;;;;;;;0.20;0.20;;;;;;;;;;5048645;28;20209;-68
2021/12/22 07:21:10;;;;;;;0.20;0.20;;;;;;;;;;5048591;28;20270;-69
2021/12/22 07:23:36;;;;;;;0.20;0.20;;;;;;;;;;5048454;28;20209;-69
2021/12/22 07:26:03;;;;;;;0.23;0.23;;;;;;;;;;5045376;28;20242;-68
2021/12/22 07:28:29;;;;;;;0.30;0.30;;;;;;;;;;5045522;28;20200;-67
2021/12/22 07:30:56;;;;;;;0.30;0.30;;;;;;;;;;5045419;28;20246;-69
2021/12/22 07:33:23;;;;;;;0.30;0.30;;;;;;;;;;5045131;28;20213;-69
2021/12/22 07:35:51;;;;;;;0.30;0.30;;;;;;;;;;5045436;28;20212;-68
2021/12/22 07:38:29;;;;;;;0.20;0.20;;;;;;;;;;5045545;28;20387;-69
2021/12/22 07:40:57;;;;;;;0.20;0.20;;;;;;;;;;5045149;28;20238;-70
2021/12/22 07:43:23;;;;;;;0.20;0.20;;;;;;;;;;5045286;28;20198;-68
2021/12/22 07:45:50;;;;;;;0.30;0.30;;;;;;;;;;5045421;28;20250;-68
2021/12/22 07:48:18;;;;;;;0.20;0.20;;;;;;;;;;5045117;28;20240;-68
2021/12/22 07:50:44;;;;;;;0.27;0.27;;;;;;;;;;5045416;28;20200;-68
2021/12/22 07:53:10;;;;;;;3.40;3.17;;;;;;;;;;5045634;28;20204;-69
2021/12/22 07:55:36;;;;;;;0.20;0.20;;;;;;;;;;5045115;28;20244;-69
2021/12/22 07:58:03;;;;;;;0.27;0.27;;;;;;;;;;5045566;28;20208;-68
2021/12/22 08:00:30;;;;;;;0.30;0.30;;;;;;;;;;5045186;28;20323;-68
2021/12/22 08:02:56;;;;;;;0.97;0.97;;;;;;;;;;5044890;28;20204;-69
2021/12/22 08:05:24;;;;;;;0.20;0.20;;;;;;;;;;5044820;28;20204;-69
2021/12/22 08:07:50;;;;;;;0.20;0.20;;;;;;;;;;5045002;28;20278;-69
2021/12/22 08:10:17;;;;;;;0.20;0.20;;;;;;;;;;5044917;28;20362;-68
2021/12/22 08:12:43;;;;;;;0.20;0.20;;;;;;;;;;5044735;28;20204;-68
2021/12/22 08:15:09;;;;;;;0.20;0.20;;;;;;;;;;5044060;28;20383;-69
2021/12/22 08:17:36;;;;;;;0.20;0.20;;;;;;;;;;5044539;28;20446;-68
2021/12/22 08:20:02;;;;;;;0.20;0.20;;;;;;;;;;5044201;28;20271;-69
2021/12/22 08:22:30;;;;;;;0.20;0.20;;;;;;;;;;5044368;28;20208;-68
2021/12/22 08:24:56;;;;;;;0.20;0.20;;;;;;;;;;5044941;28;20239;-69
2021/12/22 08:27:22;;;;;;;0.20;0.20;;;;;;;;;;5044758;28;20204;-69
2021/12/22 08:29:49;;;;;;;0.30;0.30;;;;;;;;;;5044668;28;20219;-69
2021/12/22 08:32:15;;;;;;;0.30;0.30;;;;;;;;;;5044587;28;20249;-69
2021/12/22 08:34:42;;;;;;;0.20;0.20;;;;;;;;;;5025249;28;20417;-68
2021/12/22 08:39:53;;;;;;;0.30;0.30;;;;;;;;;;5024489;28;20535;-68
2021/12/22 08:42:20;;;;;;;0.30;0.30;;;;;;;;;;5026970;28;20212;-68
2021/12/22 08:44:48;;;;;;;0.30;0.30;;;;;;;;;;5036936;28;20212;-68
2021/12/22 08:47:15;;;;;;;0.20;0.20;;;;;;;;;;5039633;28;20201;-68
2021/12/22 08:49:41;;;;;;;0.20;0.20;;;;;;;;;;5029524;28;20476;-69
2021/12/22 08:52:07;;;;;;;0.30;0.30;;;;;;;;;;5041206;28;20208;-68
2021/12/22 08:54:34;;;;;;;0.20;0.20;;;;;;;;;;5034116;28;20208;-69
2021/12/22 08:57:02;;;;;;;0.20;0.20;;;;;;;;;;5035947;28;20562;-69
2021/12/22 08:59:28;;;;;;;0.20;0.20;;;;;;;;;;5037660;28;20201;-67
2021/12/22 09:01:54;;;;;;;0.23;0.23;;;;;;;;;;5026625;28;20280;-67
2021/12/22 09:04:23;;;;;;;0.20;0.20;;;;;;;;;;5031605;28;20205;-67
2021/12/22 09:06:49;;;;;;;0.20;0.20;;;;;;;;;;5034495;28;20276;-68
2021/12/22 09:09:16;;;;;;;0.20;0.20;;;;;;;;;;5026386;28;20205;-68
2021/12/22 09:11:42;;;;;;;0.20;0.20;;;;;;;;;;5033957;28;20230;-68
2021/12/22 09:14:10;;;;;;;0.20;0.20;;;;;;;;;;5043460;28;20209;-70
2021/12/22 09:16:37;;;;;;;0.20;0.20;;;;;;;;;;5043637;28;20566;-69
2021/12/22 09:19:04;;;;;;;0.20;0.20;;;;;;;;;;5043356;28;20446;-68
2021/12/22 09:21:30;;;;;;;0.20;0.20;;;;;;;;;;5043779;28;20419;-70
2021/12/22 09:23:57;;;;;;;0.20;0.20;;;;;;;;;;5043615;28;20247;-69
2021/12/22 09:26:23;;;;;;;0.20;0.20;;;;;;;;;;5037636;28;20205;-69
2021/12/22 09:28:51;;;;;;;0.20;0.20;;;;;;;;;;5026337;28;20252;-67
2021/12/22 09:31:18;;;;;;;0.20;0.20;;;;;;;;;;5023705;28;20209;-67
2021/12/22 09:33:45;;;;;;;0.20;0.20;;;;;;;;;;5023412;28;20205;-70
2021/12/22 09:36:13;;;;;;;0.20;0.20;;;;;;;;;;5031467;28;20446;-67
2021/12/22 09:38:39;;;;;;;0.20;0.20;;;;;;;;;;5041659;28;20205;-70
2021/12/22 09:41:08;;;;;;;0.20;0.20;;;;;;;;;;5043253;28;20223;-68
2021/12/22 09:43:34;;;;;;;0.10;0.10;;;;;;;;;;5043141;28;20230;-68
2021/12/22 09:46:05;;;;;;;0.20;0.20;;;;;;;;;;5043064;28;20204;-69
2021/12/22 09:48:47;;;;;;;0.20;0.20;;;;;;;;;;5023067;28;20529;-68
2021/12/22 09:53:55;;;;;;;0.20;0.20;;;;;;;;;;5028678;28;20240;-66
2021/12/22 09:56:22;;;;;;;0.20;0.20;;;;;;;;;;5029867;28;20215;-66
2021/12/22 09:58:49;;;;;;;0.20;0.20;;;;;;;;;;5032901;28;20203;-69
2021/12/22 10:01:19;;;;;;;0.10;0.10;;;;;;;;;;5043035;28;20225;-67
2021/12/22 10:03:47;;;;;;;0.20;0.20;;;;;;;;;;5043512;28;20213;-67
2021/12/22 10:06:13;;;;;;;0.20;0.20;;;;;;;;;;5042633;28;20237;-68
2021/12/22 10:08:50;;;;;;;0.20;0.20;;;;;;;;;;5043139;28;20196;-67
2021/12/22 10:11:16;;;;;;;0.20;0.20;;;;;;;;;;5043066;28;20191;-68
2021/12/22 10:13:44;;;;;;;0.20;0.20;;;;;;;;;;5043172;28;20206;-67
2021/12/22 10:16:11;;;;;;;0.20;0.20;;;;;;;;;;5042850;28;20213;-68
2021/12/22 10:18:37;;;;;;;0.20;0.20;;;;;;;;;;5042630;28;20267;-67
2021/12/22 10:21:14;;;;;;;0.20;0.20;;;;;;;;;;5042794;28;20284;-67
2021/12/22 10:23:42;;;;;;;0.20;0.20;;;;;;;;;;5042747;28;20507;-68
2021/12/22 10:26:08;;;;;;;0.20;0.20;;;;;;;;;;5043018;28;20206;-67
2021/12/22 10:28:45;;;;;;;0.20;0.20;;;;;;;;;;5043096;28;20207;-69
2021/12/22 10:31:11;;;;;;;0.20;0.20;;;;;;;;;;5042586;28;20244;-67
2021/12/22 10:33:39;;;;;;;0.20;0.20;;;;;;;;;;5042874;28;20273;-68
2021/12/22 10:36:10;;;;;;;0.20;0.20;;;;;;;;;;5042501;28;20253;-67
2021/12/22 10:38:37;;;;;;;0.10;0.10;;;;;;;;;;5042762;28;20193;-68
2021/12/22 10:41:06;;;;;;;0.10;0.10;;;;;;;;;;5042273;28;20556;-67
2021/12/22 10:43:32;;;;;;;0.20;0.20;;;;;;;;;;5042582;28;20253;-67
2021/12/22 10:46:00;;;;;;;0.10;0.10;;;;;;;;;;5042812;28;20257;-67
2021/12/22 10:51:12;;;;;;;0.10;0.10;;;;;;;;;;5042772;28;20226;-67
2021/12/22 10:53:44;;;;;;;0.20;0.20;;;;;;;;;;5042751;28;20211;-68
2021/12/22 10:56:10;;;;;;;0.20;0.20;;;;;;;;;;5042724;28;20566;-68
2021/12/22 10:58:36;;;;;;;0.20;0.20;;;;;;;;;;5042480;28;20216;-68
2021/12/22 11:01:05;;;;;;;0.20;0.20;;;;;;;;;;5039932;28;20242;-68
2021/12/22 11:03:41;;;;;;;0.20;0.20;;;;;;;;;;5026142;28;20279;-65
2021/12/22 11:06:27;;;;;;;0.20;0.20;;;;;;;;;;5026288;28;20259;-68
2021/12/22 11:08:57;;;;;;;0.20;0.20;;;;;;;;;;5026607;28;20214;-69
2021/12/22 11:11:23;;;;;;;0.17;0.17;;;;;;;;;;5026460;28;20202;-68
2021/12/22 11:14:01;;;;;;;0.20;0.20;;;;;;;;;;5040712;28;20211;-69
2021/12/22 11:16:27;;;;;;;0.20;0.20;;;;;;;;;;5045712;28;20261;-69
2021/12/22 11:18:54;;;;;;;0.20;0.20;;;;;;;;;;5045886;28;20264;-69
2021/12/22 11:21:27;;;;;;;0.20;0.20;;;;;;;;;;5046049;28;20223;-69
2021/12/22 11:23:53;;;;;;;0.20;0.20;;;;;;;;;;5045883;28;20279;-70
2021/12/22 11:26:21;;;;;;;0.20;0.20;;;;;;;;;;5039215;28;20584;-69
2021/12/22 11:28:47;;;;;;;0.20;0.20;;;;;;;;;;5033036;28;20207;-69
2021/12/22 11:31:13;;;;;;;0.10;0.10;;;;;;;;;;5045997;28;20242;-68
2021/12/22 11:33:40;;;;;;;0.20;0.20;;;;;;;;;;5045697;28;20207;-68
2021/12/22 11:36:07;;;;;;;0.10;0.10;;;;;;;;;;5045778;28;20252;-70
2021/12/22 11:38:34;;;;;;;0.10;0.10;;;;;;;;;;5045678;28;20211;-69
2021/12/22 11:41:10;;;;;;;0.20;0.20;;;;;;;;;;5046170;28;20397;-70
2021/12/22 11:43:39;;;;;;;0.20;0.20;;;;;;;;;;5045759;28;20448;-69
2021/12/22 11:46:05;;;;;;;0.10;0.10;;;;;;;;;;5045489;28;20200;-68
2021/12/22 11:48:32;;;;;;;0.20;0.20;;;;;;;;;;5045641;28;20274;-68
2021/12/22 11:50:58;;;;;;;0.20;0.20;;;;;;;;;;5045528;28;20314;-69
2021/12/22 11:53:25;;;;;;;0.20;0.20;;;;;;;;;;5045269;28;20221;-68
2021/12/22 11:55:52;;;;;;;0.30;0.30;;;;;;;;;;5045439;28;20505;-69
2021/12/22 11:58:19;;;;;;;0.20;0.20;;;;;;;;;;5045199;28;20509;-69
2021/12/22 12:00:47;;;;;;;0.20;0.20;;;;;;;;;;5045067;28;20241;-69
2021/12/22 12:03:21;;;;;;;0.17;0.17;;;;;;;;;;5044757;28;20251;-69
2021/12/22 12:06:01;;;;;;;0.10;0.10;;;;;;;;;;5044813;28;20236;-68
2021/12/22 12:08:32;;;;;;;0.20;0.20;;;;;;;;;;5044807;28;20211;-68
2021/12/22 12:10:59;;;;;;;0.13;0.13;;;;;;;;;;5024933;28;20255;-70
2021/12/22 12:13:37;;;;;;;0.20;0.20;;;;;;;;;;5036435;28;20229;-69
2021/12/22 12:21:50;;;;;;;0.20;0.20;;;;;;;;;;5025026;28;20265;-67
2021/12/22 12:24:35;;;;;;;0.20;0.20;;;;;;;;;;5024824;28;20272;-67
2021/12/22 12:27:04;;;;;;;0.20;0.20;;;;;;;;;;5024861;28;20207;-68
2021/12/22 12:29:54;;;;;;;0.20;0.20;;;;;;;;;;5029860;28;20206;-66
2021/12/22 12:32:35;;;;;;;0.20;0.20;;;;;;;;;;5024787;28;20198;-67
2021/12/22 12:35:19;;;;;;;0.20;0.20;;;;;;;;;;5038463;28;20205;-68
2021/12/22 12:38:04;;;;;;;0.20;0.20;;;;;;;;;;5044707;28;20481;-67
2021/12/22 12:40:49;;;;;;;0.20;0.20;;;;;;;;;;5044302;28;20562;-67
2021/12/22 12:43:15;;;;;;;0.20;0.20;;;;;;;;;;5044115;28;20256;-66
2021/12/22 12:45:42;;;;;;;0.20;0.20;;;;;;;;;;5044123;28;20277;-67
2021/12/22 12:48:27;;;;;;;0.20;0.20;;;;;;;;;;5044108;28;20448;-68
2021/12/22 12:51:12;;;;;;;0.20;0.20;;;;;;;;;;5033585;28;20248;-70
2021/12/22 12:53:40;;;;;;;0.20;0.20;;;;;;;;;;5032086;28;20198;-67
2021/12/22 12:56:08;;;;;;;0.20;0.20;;;;;;;;;;5027427;28;20238;-66
2021/12/22 12:58:34;;;;;;;1.37;1.03;;;;;;;;;;5031872;28;20292;-66
2021/12/22 13:01:00;;;;;;;0.20;0.20;;;;;;;;;;5034154;28;20217;-67
2021/12/22 13:03:27;;;;;;;0.20;0.20;;;;;;;;;;5029146;28;20229;-68
2021/12/22 13:05:53;;;;;;;0.23;0.23;;;;;;;;;;5027251;28;20248;-68
2021/12/22 13:08:19;;;;;;;0.20;0.20;;;;;;;;;;5037206;28;20213;-66
2021/12/22 13:10:54;;;;;;;0.20;0.20;;;;;;;;;;5039573;28;20202;-67
2021/12/22 13:13:39;;;;;;;0.20;0.20;;;;;;;;;;5023917;28;20214;-67
2021/12/22 13:16:13;;;;;;;0.20;0.20;;;;;;;;;;5024126;28;20229;-67
2021/12/22 13:18:40;;;;;;;0.20;0.20;;;;;;;;;;5026884;28;20213;-66
2021/12/22 13:21:09;;;;;;;0.20;0.20;;;;;;;;;;5032681;28;20198;-66
2021/12/22 13:23:36;;;;;;;0.20;0.20;;;;;;;;;;5033844;28;20210;-66
2021/12/22 13:26:03;;;;;;;0.27;0.27;;;;;;;;;;5026771;28;20505;-67
2021/12/22 13:28:31;;;;;;;2.33;2.10;;;;;;;;;;5043686;28;20239;-67
2021/12/22 13:31:00;;;;;;;0.37;0.37;;;;;;;;;;5039240;28;20209;-66
2021/12/22 13:33:26;;;;;;;0.20;0.20;;;;;;;;;;5034412;28;20224;-67
2021/12/22 13:35:55;;;;;;;0.20;0.20;;;;;;;;;;5026053;28;20209;-67
2021/12/22 13:38:23;;;;;;;0.20;0.20;;;;;;;;;;5025464;28;20274;-68
2021/12/22 13:40:51;;;;;;;0.20;0.20;;;;;;;;;;5034813;28;20398;-66
2021/12/22 13:43:23;;;;;;;0.20;0.20;;;;;;;;;;5035004;28;20226;-66
2021/12/22 13:45:49;;;;;;;0.20;0.20;;;;;;;;;;5025864;28;20209;-67
2021/12/22 13:48:19;;;;;;;0.20;0.20;;;;;;;;;;5023825;28;20230;-67
2021/12/22 13:50:47;;;;;;;0.20;0.20;;;;;;;;;;5023666;28;20205;-68
2021/12/22 13:53:14;;;;;;;0.20;0.20;;;;;;;;;;5023434;28;20202;-65
2021/12/22 13:55:41;;;;;;;0.20;0.20;;;;;;;;;;5023358;28;20438;-65
2021/12/22 13:58:26;;;;;;;0.20;0.20;;;;;;;;;;5030016;28;20208;-66
2021/12/22 14:01:07;;;;;;;0.30;0.30;;;;;;;;;;5042121;28;20205;-66
2021/12/22 14:03:35;;;;;;;0.20;0.20;;;;;;;;;;5022982;28;20276;-66
2021/12/22 14:06:04;;;;;;;0.20;0.20;;;;;;;;;;5026476;28;20343;-68
2021/12/22 14:08:30;;;;;;;0.20;0.20;;;;;;;;;;5027089;28;20217;-70
2021/12/22 14:10:57;;;;;;;0.20;0.20;;;;;;;;;;5034053;28;20394;-68
2021/12/22 14:13:26;;;;;;;0.20;0.20;;;;;;;;;;5030562;28;20197;-68
2021/12/22 14:15:53;;;;;;;0.20;0.20;;;;;;;;;;5031012;28;20225;-69
2021/12/22 14:18:19;;;;;;;0.20;0.20;;;;;;;;;;5040015;28;20495;-67
2021/12/22 14:20:47;;;;;;;0.20;0.20;;;;;;;;;;5042328;28;20201;-67
2021/12/22 14:26:26;;;;;;;0.20;0.20;;;;;;;;;;5040468;28;20246;-67
2021/12/22 14:29:02;;;;;;;0.20;0.20;;;;;;;;;;5029676;28;20197;-67
2021/12/22 14:31:29;;;;;;;0.20;0.20;;;;;;;;;;5029553;28;20222;-67
2021/12/22 14:34:02;;;;;;;0.20;0.20;;;;;;;;;;5031892;28;20205;-67
2021/12/22 14:39:47;;;;;;;0.20;0.20;;;;;;;;;;5044036;28;20519;-68
2021/12/22 14:42:20;;;;;;;0.20;0.20;;;;;;;;;;5037381;28;20218;-67
2021/12/22 14:48:03;;;;;;;0.20;0.20;;;;;;;;;;5029276;28;20216;-67
2021/12/22 14:50:29;;;;;;;0.20;0.20;;;;;;;;;;5035821;28;20398;-66
2021/12/22 14:52:56;;;;;;;0.20;0.20;;;;;;;;;;5031678;28;20209;-68
2021/12/22 14:55:43;;;;;;;0.30;0.30;;;;;;;;;;5028791;28;20284;-67
2021/12/22 14:58:10;;;;;;;0.20;0.20;;;;;;;;;;5036985;28;20272;-67
2021/12/22 15:00:37;;;;;;;0.30;0.30;;;;;;;;;;5032022;28;20205;-68
2021/12/22 15:03:04;;;;;;;0.20;0.20;;;;;;;;;;5029697;28;20455;-66
2021/12/22 15:08:33;;;;;;;0.20;0.20;;;;;;;;;;5030360;28;20236;-67
2021/12/22 15:11:01;;;;;;;0.20;0.20;;;;;;;;;;5037221;28;20217;-67
2021/12/22 15:13:28;;;;;;;0.50;0.50;;;;;;;;;;5036422;28;20272;-68
2021/12/22 15:15:54;;;;;;;0.20;0.20;;;;;;;;;;5034592;28;20412;-68
2021/12/22 15:18:20;;;;;;;0.20;0.20;;;;;;;;;;5045782;28;20254;-66
2021/12/22 15:20:47;;;;;;;0.77;0.77;;;;;;;;;;5046171;28;20204;-67
2021/12/22 15:23:13;;;;;;;0.20;0.20;;;;;;;;;;5046694;28;20436;-67
2021/12/22 15:25:40;;;;;;;0.20;0.20;;;;;;;;;;5046111;28;20205;-67
2021/12/22 15:28:07;;;;;;;0.20;0.20;;;;;;;;;;5045237;28;20251;-67